sensor_id;sensor_type;location;lat;lon;timestamp;temperature;humidity
46055;DHT22;31788;6.954;-71.872;2023-04-15T00:01:40;29.10;88.10
46055;DHT22;31788;6.954;-71.872;2023-04-15T00:04:06;29.00;88.30
46055;DHT22;31788;6.954;-71.872;2023-04-15T00:06:33;29.00;88.50
46055;DHT22;31788;6.954;-71.872;2023-04-15T00:09:00;29.00;89.00
46055;DHT22;31788;6.954;-71.872;2023-04-15T00:11:27;29.00;89.10
46055;DHT22;31788;6.954;-71.872;2023-04-15T00:13:53;29.00;89.10
46055;DHT22;31788;6.954;-71.872;2023-04-15T00:16:20;29.00;89.80
46055;DHT22;31788;6.954;-71.872;2023-04-15T00:18:47;28.90;89.40
46055;DHT22;31788;6.954;-71.872;2023-04-15T00:21:13;28.90;89.70
46055;DHT22;31788;6.954;-71.872;2023-04-15T00:23:40;28.90;89.90
46055;DHT22;31788;6.954;-71.872;2023-04-15T00:26:08;28.90;90.10
46055;DHT22;31788;6.954;-71.872;2023-04-15T00:28:34;28.90;90.10
46055;DHT22;31788;6.954;-71.872;2023-04-15T00:31:01;28.80;90.30
46055;DHT22;31788;6.954;-71.872;2023-04-15T00:33:29;28.80;90.30
46055;DHT22;31788;6.954;-71.872;2023-04-15T00:35:55;28.80;90.40
46055;DHT22;31788;6.954;-71.872;2023-04-15T00:38:22;28.80;90.40
46055;DHT22;31788;6.954;-71.872;2023-04-15T00:40:49;28.80;90.10
46055;DHT22;31788;6.954;-71.872;2023-04-15T00:43:16;28.80;90.30
46055;DHT22;31788;6.954;-71.872;2023-04-15T00:45:42;28.70;90.10
46055;DHT22;31788;6.954;-71.872;2023-04-15T00:48:09;28.70;90.10
46055;DHT22;31788;6.954;-71.872;2023-04-15T00:50:36;28.70;90.10
46055;DHT22;31788;6.954;-71.872;2023-04-15T00:53:03;28.70;90.10
46055;DHT22;31788;6.954;-71.872;2023-04-15T00:55:29;28.60;90.10
46055;DHT22;31788;6.954;-71.872;2023-04-15T00:57:56;28.70;90.40
46055;DHT22;31788;6.954;-71.872;2023-04-15T01:00:23;28.60;90.70
46055;DHT22;31788;6.954;-71.872;2023-04-15T01:02:49;28.60;90.90
46055;DHT22;31788;6.954;-71.872;2023-04-15T01:05:16;28.60;90.70
46055;DHT22;31788;6.954;-71.872;2023-04-15T01:07:43;28.60;90.40
46055;DHT22;31788;6.954;-71.872;2023-04-15T01:10:10;28.50;90.60
46055;DHT22;31788;6.954;-71.872;2023-04-15T01:12:36;28.50;90.30
46055;DHT22;31788;6.954;-71.872;2023-04-15T01:15:04;28.60;90.50
46055;DHT22;31788;6.954;-71.872;2023-04-15T01:17:31;28.50;90.20
46055;DHT22;31788;6.954;-71.872;2023-04-15T01:19:58;28.40;90.20
46055;DHT22;31788;6.954;-71.872;2023-04-15T01:22:27;28.50;90.40
46055;DHT22;31788;6.954;-71.872;2023-04-15T01:25:10;28.50;90.30
46055;DHT22;31788;6.954;-71.872;2023-04-15T01:27:41;28.50;90.30
46055;DHT22;31788;6.954;-71.872;2023-04-15T01:30:09;28.50;90.30
46055;DHT22;31788;6.954;-71.872;2023-04-15T01:32:36;28.50;90.40
46055;DHT22;31788;6.954;-71.872;2023-04-15T01:35:05;28.40;90.50
46055;DHT22;31788;6.954;-71.872;2023-04-15T01:37:34;28.40;90.20
46055;DHT22;31788;6.954;-71.872;2023-04-15T01:40:00;28.40;90.50
46055;DHT22;31788;6.954;-71.872;2023-04-15T01:42:28;28.40;90.40
46055;DHT22;31788;6.954;-71.872;2023-04-15T01:44:55;28.40;90.30
46055;DHT22;31788;6.954;-71.872;2023-04-15T01:47:21;28.30;90.40
46055;DHT22;31788;6.954;-71.872;2023-04-15T01:49:48;28.30;90.40
46055;DHT22;31788;6.954;-71.872;2023-04-15T01:52:14;28.30;90.40
46055;DHT22;31788;6.954;-71.872;2023-04-15T01:54:41;28.20;90.40
46055;DHT22;31788;6.954;-71.872;2023-04-15T01:57:07;28.20;90.60
46055;DHT22;31788;6.954;-71.872;2023-04-15T01:59:34;28.20;90.60
46055;DHT22;31788;6.954;-71.872;2023-04-15T02:02:02;28.20;90.80
46055;DHT22;31788;6.954;-71.872;2023-04-15T02:04:29;28.10;90.80
46055;DHT22;31788;6.954;-71.872;2023-04-15T02:06:56;28.10;90.80
46055;DHT22;31788;6.954;-71.872;2023-04-15T02:09:23;28.10;90.40
46055;DHT22;31788;6.954;-71.872;2023-04-15T02:11:51;28.10;90.60
46055;DHT22;31788;6.954;-71.872;2023-04-15T02:14:19;28.10;90.60
46055;DHT22;31788;6.954;-71.872;2023-04-15T02:16:45;28.00;90.50
46055;DHT22;31788;6.954;-71.872;2023-04-15T02:19:12;28.10;90.90
46055;DHT22;31788;6.954;-71.872;2023-04-15T02:21:39;28.00;90.90
46055;DHT22;31788;6.954;-71.872;2023-04-15T02:24:05;28.00;90.90
46055;DHT22;31788;6.954;-71.872;2023-04-15T02:26:32;28.00;90.90
46055;DHT22;31788;6.954;-71.872;2023-04-15T02:28:59;28.00;90.40
46055;DHT22;31788;6.954;-71.872;2023-04-15T02:31:26;28.00;90.30
46055;DHT22;31788;6.954;-71.872;2023-04-15T02:33:52;28.00;90.30
46055;DHT22;31788;6.954;-71.872;2023-04-15T02:36:19;28.00;90.20
46055;DHT22;31788;6.954;-71.872;2023-04-15T02:38:46;28.00;90.10
46055;DHT22;31788;6.954;-71.872;2023-04-15T02:41:13;28.00;90.10
46055;DHT22;31788;6.954;-71.872;2023-04-15T02:43:40;28.00;90.00
46055;DHT22;31788;6.954;-71.872;2023-04-15T02:46:07;28.00;90.10
46055;DHT22;31788;6.954;-71.872;2023-04-15T02:48:34;28.00;90.00
46055;DHT22;31788;6.954;-71.872;2023-04-15T02:51:16;28.00;89.60
46055;DHT22;31788;6.954;-71.872;2023-04-15T02:53:45;28.10;90.00
46055;DHT22;31788;6.954;-71.872;2023-04-15T02:56:12;28.00;90.10
46055;DHT22;31788;6.954;-71.872;2023-04-15T02:58:40;28.10;90.40
46055;DHT22;31788;6.954;-71.872;2023-04-15T03:01:07;28.00;90.30
46055;DHT22;31788;6.954;-71.872;2023-04-15T03:03:34;28.00;90.20
46055;DHT22;31788;6.954;-71.872;2023-04-15T03:06:01;28.00;90.20
46055;DHT22;31788;6.954;-71.872;2023-04-15T03:08:27;28.00;90.10
46055;DHT22;31788;6.954;-71.872;2023-04-15T03:10:54;28.00;90.10
46055;DHT22;31788;6.954;-71.872;2023-04-15T03:13:20;28.00;89.70
46055;DHT22;31788;6.954;-71.872;2023-04-15T03:15:47;28.00;90.00
46055;DHT22;31788;6.954;-71.872;2023-04-15T03:18:14;28.00;90.00
46055;DHT22;31788;6.954;-71.872;2023-04-15T03:20:40;28.00;89.30
46055;DHT22;31788;6.954;-71.872;2023-04-15T03:23:07;28.00;89.30
46055;DHT22;31788;6.954;-71.872;2023-04-15T03:25:33;28.00;89.50
46055;DHT22;31788;6.954;-71.872;2023-04-15T03:28:02;28.10;89.40
46055;DHT22;31788;6.954;-71.872;2023-04-15T03:30:29;28.10;89.20
46055;DHT22;31788;6.954;-71.872;2023-04-15T03:32:56;28.00;88.90
46055;DHT22;31788;6.954;-71.872;2023-04-15T03:35:23;28.00;88.60
46055;DHT22;31788;6.954;-71.872;2023-04-15T03:37:49;28.00;89.00
46055;DHT22;31788;6.954;-71.872;2023-04-15T03:40:16;28.00;88.80
46055;DHT22;31788;6.954;-71.872;2023-04-15T03:42:43;28.10;88.80
46055;DHT22;31788;6.954;-71.872;2023-04-15T03:45:10;28.00;88.20
46055;DHT22;31788;6.954;-71.872;2023-04-15T03:47:36;28.00;88.00
46055;DHT22;31788;6.954;-71.872;2023-04-15T03:50:03;28.00;88.30
46055;DHT22;31788;6.954;-71.872;2023-04-15T03:52:30;28.00;88.00
46055;DHT22;31788;6.954;-71.872;2023-04-15T03:54:56;28.00;88.30
46055;DHT22;31788;6.954;-71.872;2023-04-15T03:57:23;28.00;88.70
46055;DHT22;31788;6.954;-71.872;2023-04-15T03:59:50;28.00;88.80
46055;DHT22;31788;6.954;-71.872;2023-04-15T04:02:16;28.00;89.10
46055;DHT22;31788;6.954;-71.872;2023-04-15T04:04:43;28.00;88.90
46055;DHT22;31788;6.954;-71.872;2023-04-15T04:07:15;27.90;89.50
46055;DHT22;31788;6.954;-71.872;2023-04-15T04:09:41;27.90;89.00
46055;DHT22;31788;6.954;-71.872;2023-04-15T04:12:08;27.90;88.40
46055;DHT22;31788;6.954;-71.872;2023-04-15T04:14:35;27.90;88.30
46055;DHT22;31788;6.954;-71.872;2023-04-15T04:17:01;27.90;89.10
46055;DHT22;31788;6.954;-71.872;2023-04-15T04:19:28;27.90;89.30
46055;DHT22;31788;6.954;-71.872;2023-04-15T04:21:55;27.80;89.60
46055;DHT22;31788;6.954;-71.872;2023-04-15T04:24:21;27.80;90.00
46055;DHT22;31788;6.954;-71.872;2023-04-15T04:26:48;27.80;90.10
46055;DHT22;31788;6.954;-71.872;2023-04-15T04:29:15;27.70;90.30
46055;DHT22;31788;6.954;-71.872;2023-04-15T04:31:41;27.70;90.20
46055;DHT22;31788;6.954;-71.872;2023-04-15T04:34:08;27.70;90.50
46055;DHT22;31788;6.954;-71.872;2023-04-15T04:36:35;27.60;90.60
46055;DHT22;31788;6.954;-71.872;2023-04-15T04:39:01;27.60;90.60
46055;DHT22;31788;6.954;-71.872;2023-04-15T04:41:28;27.60;90.60
46055;DHT22;31788;6.954;-71.872;2023-04-15T04:43:55;27.60;90.50
46055;DHT22;31788;6.954;-71.872;2023-04-15T04:46:21;27.60;90.50
46055;DHT22;31788;6.954;-71.872;2023-04-15T04:48:48;27.60;90.50
46055;DHT22;31788;6.954;-71.872;2023-04-15T04:51:15;27.60;90.50
46055;DHT22;31788;6.954;-71.872;2023-04-15T04:53:42;27.60;90.60
46055;DHT22;31788;6.954;-71.872;2023-04-15T04:56:09;27.60;90.00
46055;DHT22;31788;6.954;-71.872;2023-04-15T04:58:35;27.60;90.00
46055;DHT22;31788;6.954;-71.872;2023-04-15T05:01:03;27.60;90.30
46055;DHT22;31788;6.954;-71.872;2023-04-15T05:03:29;27.60;90.50
46055;DHT22;31788;6.954;-71.872;2023-04-15T05:05:56;27.60;90.10
46055;DHT22;31788;6.954;-71.872;2023-04-15T05:08:23;27.60;90.40
46055;DHT22;31788;6.954;-71.872;2023-04-15T05:10:49;27.60;90.70
46055;DHT22;31788;6.954;-71.872;2023-04-15T05:13:16;27.60;90.50
46055;DHT22;31788;6.954;-71.872;2023-04-15T05:15:43;27.60;90.70
46055;DHT22;31788;6.954;-71.872;2023-04-15T05:18:10;27.50;90.60
46055;DHT22;31788;6.954;-71.872;2023-04-15T05:20:37;27.50;90.60
46055;DHT22;31788;6.954;-71.872;2023-04-15T05:23:03;27.50;90.60
46055;DHT22;31788;6.954;-71.872;2023-04-15T05:25:30;27.50;90.50
46055;DHT22;31788;6.954;-71.872;2023-04-15T05:27:57;27.50;90.60
46055;DHT22;31788;6.954;-71.872;2023-04-15T05:30:24;27.50;90.40
46055;DHT22;31788;6.954;-71.872;2023-04-15T05:32:51;27.50;90.70
46055;DHT22;31788;6.954;-71.872;2023-04-15T05:35:17;27.50;90.70
46055;DHT22;31788;6.954;-71.872;2023-04-15T05:37:44;27.50;90.20
46055;DHT22;31788;6.954;-71.872;2023-04-15T05:40:11;27.50;90.50
46055;DHT22;31788;6.954;-71.872;2023-04-15T05:42:38;27.50;90.00
46055;DHT22;31788;6.954;-71.872;2023-04-15T05:45:05;27.50;90.00
46055;DHT22;31788;6.954;-71.872;2023-04-15T05:47:37;27.50;90.00
46055;DHT22;31788;6.954;-71.872;2023-04-15T05:50:04;27.60;89.90
46055;DHT22;31788;6.954;-71.872;2023-04-15T05:52:31;27.60;90.50
46055;DHT22;31788;6.954;-71.872;2023-04-15T05:54:58;27.60;90.20
46055;DHT22;31788;6.954;-71.872;2023-04-15T05:57:25;27.60;90.00
46055;DHT22;31788;6.954;-71.872;2023-04-15T05:59:52;27.60;89.80
46055;DHT22;31788;6.954;-71.872;2023-04-15T06:02:18;27.60;90.00
46055;DHT22;31788;6.954;-71.872;2023-04-15T06:04:45;27.60;89.80
46055;DHT22;31788;6.954;-71.872;2023-04-15T06:07:12;27.60;89.70
46055;DHT22;31788;6.954;-71.872;2023-04-15T06:09:38;27.60;90.00
46055;DHT22;31788;6.954;-71.872;2023-04-15T06:12:05;27.60;90.00
46055;DHT22;31788;6.954;-71.872;2023-04-15T06:14:37;27.60;90.00
46055;DHT22;31788;6.954;-71.872;2023-04-15T06:17:05;27.60;90.00
46055;DHT22;31788;6.954;-71.872;2023-04-15T06:19:32;27.60;89.80
46055;DHT22;31788;6.954;-71.872;2023-04-15T06:22:00;27.60;90.30
46055;DHT22;31788;6.954;-71.872;2023-04-15T06:24:28;27.60;90.10
46055;DHT22;31788;6.954;-71.872;2023-04-15T06:26:54;27.60;90.00
46055;DHT22;31788;6.954;-71.872;2023-04-15T06:29:21;27.60;90.00
46055;DHT22;31788;6.954;-71.872;2023-04-15T06:31:48;27.50;89.90
46055;DHT22;31788;6.954;-71.872;2023-04-15T06:34:15;27.50;90.00
46055;DHT22;31788;6.954;-71.872;2023-04-15T06:36:42;27.60;90.00
46055;DHT22;31788;6.954;-71.872;2023-04-15T06:39:08;27.50;90.10
46055;DHT22;31788;6.954;-71.872;2023-04-15T06:41:35;27.50;90.20
46055;DHT22;31788;6.954;-71.872;2023-04-15T06:44:02;27.50;90.60
46055;DHT22;31788;6.954;-71.872;2023-04-15T06:46:29;27.50;90.40
46055;DHT22;31788;6.954;-71.872;2023-04-15T06:48:55;27.50;90.50
46055;DHT22;31788;6.954;-71.872;2023-04-15T06:51:22;27.40;90.40
46055;DHT22;31788;6.954;-71.872;2023-04-15T06:53:49;27.40;90.60
46055;DHT22;31788;6.954;-71.872;2023-04-15T06:56:15;27.40;90.30
46055;DHT22;31788;6.954;-71.872;2023-04-15T06:58:42;27.40;90.30
46055;DHT22;31788;6.954;-71.872;2023-04-15T07:01:08;27.40;90.30
46055;DHT22;31788;6.954;-71.872;2023-04-15T07:03:35;27.40;90.50
46055;DHT22;31788;6.954;-71.872;2023-04-15T07:06:02;27.40;90.50
46055;DHT22;31788;6.954;-71.872;2023-04-15T07:08:32;27.40;90.40
46055;DHT22;31788;6.954;-71.872;2023-04-15T07:10:59;27.40;90.20
46055;DHT22;31788;6.954;-71.872;2023-04-15T07:13:26;27.40;90.20
46055;DHT22;31788;6.954;-71.872;2023-04-15T07:15:53;27.50;90.20
46055;DHT22;31788;6.954;-71.872;2023-04-15T07:18:19;27.40;90.00
46055;DHT22;31788;6.954;-71.872;2023-04-15T07:20:46;27.40;90.10
46055;DHT22;31788;6.954;-71.872;2023-04-15T07:23:13;27.40;89.90
46055;DHT22;31788;6.954;-71.872;2023-04-15T07:25:39;27.40;90.10
46055;DHT22;31788;6.954;-71.872;2023-04-15T07:28:06;27.40;89.80
46055;DHT22;31788;6.954;-71.872;2023-04-15T07:30:32;27.50;89.90
46055;DHT22;31788;6.954;-71.872;2023-04-15T07:33:00;27.40;90.20
46055;DHT22;31788;6.954;-71.872;2023-04-15T07:35:27;27.40;90.00
46055;DHT22;31788;6.954;-71.872;2023-04-15T07:37:54;27.40;90.00
46055;DHT22;31788;6.954;-71.872;2023-04-15T07:40:21;27.40;90.00
46055;DHT22;31788;6.954;-71.872;2023-04-15T07:42:48;27.40;90.00
46055;DHT22;31788;6.954;-71.872;2023-04-15T07:45:14;27.40;90.50
46055;DHT22;31788;6.954;-71.872;2023-04-15T07:47:41;27.30;90.80
46055;DHT22;31788;6.954;-71.872;2023-04-15T07:50:09;27.30;90.90
46055;DHT22;31788;6.954;-71.872;2023-04-15T07:52:36;27.30;90.90
46055;DHT22;31788;6.954;-71.872;2023-04-15T07:55:06;27.20;91.10
46055;DHT22;31788;6.954;-71.872;2023-04-15T07:57:36;27.20;91.10
46055;DHT22;31788;6.954;-71.872;2023-04-15T08:00:04;27.20;90.90
46055;DHT22;31788;6.954;-71.872;2023-04-15T08:02:33;27.20;91.10
46055;DHT22;31788;6.954;-71.872;2023-04-15T08:05:00;27.20;91.10
46055;DHT22;31788;6.954;-71.872;2023-04-15T08:07:28;27.30;91.10
46055;DHT22;31788;6.954;-71.872;2023-04-15T08:09:55;27.20;90.80
46055;DHT22;31788;6.954;-71.872;2023-04-15T08:12:22;27.20;90.60
46055;DHT22;31788;6.954;-71.872;2023-04-15T08:14:50;27.20;90.80
46055;DHT22;31788;6.954;-71.872;2023-04-15T08:17:17;27.20;90.90
46055;DHT22;31788;6.954;-71.872;2023-04-15T08:19:43;27.30;90.60
46055;DHT22;31788;6.954;-71.872;2023-04-15T08:22:10;27.30;90.30
46055;DHT22;31788;6.954;-71.872;2023-04-15T08:24:37;27.30;90.50
46055;DHT22;31788;6.954;-71.872;2023-04-15T08:27:03;27.30;90.50
46055;DHT22;31788;6.954;-71.872;2023-04-15T08:29:31;27.30;90.40
46055;DHT22;31788;6.954;-71.872;2023-04-15T08:31:59;27.30;90.40
46055;DHT22;31788;6.954;-71.872;2023-04-15T08:34:29;27.30;90.30
46055;DHT22;31788;6.954;-71.872;2023-04-15T08:36:56;27.30;90.40
46055;DHT22;31788;6.954;-71.872;2023-04-15T08:39:22;27.30;90.10
46055;DHT22;31788;6.954;-71.872;2023-04-15T08:41:57;27.30;90.20
46055;DHT22;31788;6.954;-71.872;2023-04-15T08:44:29;27.30;90.10
46055;DHT22;31788;6.954;-71.872;2023-04-15T08:47:00;27.30;90.10
46055;DHT22;31788;6.954;-71.872;2023-04-15T08:49:28;27.30;90.10
46055;DHT22;31788;6.954;-71.872;2023-04-15T08:51:58;27.30;90.20
46055;DHT22;31788;6.954;-71.872;2023-04-15T08:54:26;27.30;90.30
46055;DHT22;31788;6.954;-71.872;2023-04-15T08:56:53;27.30;90.30
46055;DHT22;31788;6.954;-71.872;2023-04-15T08:59:21;27.30;90.40
46055;DHT22;31788;6.954;-71.872;2023-04-15T09:01:49;27.30;90.20
46055;DHT22;31788;6.954;-71.872;2023-04-15T09:04:18;27.30;90.20
46055;DHT22;31788;6.954;-71.872;2023-04-15T09:06:46;27.30;90.10
46055;DHT22;31788;6.954;-71.872;2023-04-15T09:09:13;27.30;90.10
46055;DHT22;31788;6.954;-71.872;2023-04-15T09:11:39;27.30;90.10
46055;DHT22;31788;6.954;-71.872;2023-04-15T09:14:07;27.30;90.10
46055;DHT22;31788;6.954;-71.872;2023-04-15T09:17:01;27.30;90.20
46055;DHT22;31788;6.954;-71.872;2023-04-15T09:19:28;27.30;90.30
46055;DHT22;31788;6.954;-71.872;2023-04-15T09:21:57;27.30;90.00
46055;DHT22;31788;6.954;-71.872;2023-04-15T09:24:25;27.30;90.20
46055;DHT22;31788;6.954;-71.872;2023-04-15T09:26:59;27.30;90.10
46055;DHT22;31788;6.954;-71.872;2023-04-15T09:29:26;27.30;90.10
46055;DHT22;31788;6.954;-71.872;2023-04-15T09:31:53;27.20;90.20
46055;DHT22;31788;6.954;-71.872;2023-04-15T09:34:20;27.30;90.20
46055;DHT22;31788;6.954;-71.872;2023-04-15T09:39:14;27.20;90.30
46055;DHT22;31788;6.954;-71.872;2023-04-15T09:41:41;27.20;90.60
46055;DHT22;31788;6.954;-71.872;2023-04-15T09:44:25;27.20;90.60
46055;DHT22;31788;6.954;-71.872;2023-04-15T09:46:52;27.20;90.90
46055;DHT22;31788;6.954;-71.872;2023-04-15T09:49:18;27.20;90.90
46055;DHT22;31788;6.954;-71.872;2023-04-15T09:51:45;27.20;90.60
46055;DHT22;31788;6.954;-71.872;2023-04-15T09:54:12;27.20;90.90
46055;DHT22;31788;6.954;-71.872;2023-04-15T09:56:44;27.20;90.90
46055;DHT22;31788;6.954;-71.872;2023-04-15T09:59:11;27.20;91.00
46055;DHT22;31788;6.954;-71.872;2023-04-15T10:01:40;27.10;91.10
46055;DHT22;31788;6.954;-71.872;2023-04-15T10:04:08;27.10;91.30
46055;DHT22;31788;6.954;-71.872;2023-04-15T10:06:35;27.10;91.30
46055;DHT22;31788;6.954;-71.872;2023-04-15T10:09:02;27.10;91.40
46055;DHT22;31788;6.954;-71.872;2023-04-15T10:11:29;27.10;91.40
46055;DHT22;31788;6.954;-71.872;2023-04-15T10:13:56;27.00;91.90
46055;DHT22;31788;6.954;-71.872;2023-04-15T10:16:26;27.00;91.80
46055;DHT22;31788;6.954;-71.872;2023-04-15T10:18:56;26.90;91.90
46055;DHT22;31788;6.954;-71.872;2023-04-15T10:21:27;26.90;92.10
46055;DHT22;31788;6.954;-71.872;2023-04-15T10:23:57;26.90;91.80
46055;DHT22;31788;6.954;-71.872;2023-04-15T10:26:24;26.90;91.90
46055;DHT22;31788;6.954;-71.872;2023-04-15T10:28:52;26.90;91.90
46055;DHT22;31788;6.954;-71.872;2023-04-15T10:31:19;26.90;91.80
46055;DHT22;31788;6.954;-71.872;2023-04-15T10:33:47;26.90;91.80
46055;DHT22;31788;6.954;-71.872;2023-04-15T10:36:15;26.90;91.80
46055;DHT22;31788;6.954;-71.872;2023-04-15T10:38:44;26.90;91.80
46055;DHT22;31788;6.954;-71.872;2023-04-15T10:41:24;27.00;91.90
46055;DHT22;31788;6.954;-71.872;2023-04-15T10:44:01;27.00;92.10
46055;DHT22;31788;6.954;-71.872;2023-04-15T10:49:16;27.00;92.30
46055;DHT22;31788;6.954;-71.872;2023-04-15T10:51:57;27.00;92.50
46055;DHT22;31788;6.954;-71.872;2023-04-15T10:57:06;27.00;92.50
46055;DHT22;31788;6.954;-71.872;2023-04-15T11:03:07;27.00;92.50
46055;DHT22;31788;6.954;-71.872;2023-04-15T11:05:52;27.10;92.40
46055;DHT22;31788;6.954;-71.872;2023-04-15T11:08:21;27.10;92.80
46055;DHT22;31788;6.954;-71.872;2023-04-15T11:11:06;27.10;93.00
46055;DHT22;31788;6.954;-71.872;2023-04-15T11:13:33;27.10;92.60
46055;DHT22;31788;6.954;-71.872;2023-04-15T11:16:01;27.10;92.70
46055;DHT22;31788;6.954;-71.872;2023-04-15T11:18:29;27.10;92.90
46055;DHT22;31788;6.954;-71.872;2023-04-15T11:21:01;27.20;93.00
46055;DHT22;31788;6.954;-71.872;2023-04-15T11:23:32;27.20;93.40
46055;DHT22;31788;6.954;-71.872;2023-04-15T11:26:01;27.20;93.50
46055;DHT22;31788;6.954;-71.872;2023-04-15T11:28:31;27.20;93.20
46055;DHT22;31788;6.954;-71.872;2023-04-15T11:31:04;27.20;92.90
46055;DHT22;31788;6.954;-71.872;2023-04-15T11:33:31;27.20;92.80
46055;DHT22;31788;6.954;-71.872;2023-04-15T11:35:58;27.20;93.00
46055;DHT22;31788;6.954;-71.872;2023-04-15T11:38:24;27.30;93.30
46055;DHT22;31788;6.954;-71.872;2023-04-15T11:40:51;27.30;93.50
46055;DHT22;31788;6.954;-71.872;2023-04-15T11:43:20;27.30;93.60
46055;DHT22;31788;6.954;-71.872;2023-04-15T11:46:00;27.30;93.90
46055;DHT22;31788;6.954;-71.872;2023-04-15T11:48:32;27.30;93.60
46055;DHT22;31788;6.954;-71.872;2023-04-15T11:51:04;27.30;93.50
46055;DHT22;31788;6.954;-71.872;2023-04-15T11:53:48;27.40;92.90
46055;DHT22;31788;6.954;-71.872;2023-04-15T11:56:20;27.40;93.50
46055;DHT22;31788;6.954;-71.872;2023-04-15T11:58:47;27.50;94.00
46055;DHT22;31788;6.954;-71.872;2023-04-15T12:01:18;27.50;93.30
46055;DHT22;31788;6.954;-71.872;2023-04-15T12:03:48;27.50;93.40
46055;DHT22;31788;6.954;-71.872;2023-04-15T12:06:17;27.60;93.20
46055;DHT22;31788;6.954;-71.872;2023-04-15T12:08:57;27.60;93.20
46055;DHT22;31788;6.954;-71.872;2023-04-15T12:11:56;27.60;93.30
46055;DHT22;31788;6.954;-71.872;2023-04-15T12:14:30;27.60;93.20
46055;DHT22;31788;6.954;-71.872;2023-04-15T12:17:02;27.60;93.20
46055;DHT22;31788;6.954;-71.872;2023-04-15T12:22:10;27.70;93.10
46055;DHT22;31788;6.954;-71.872;2023-04-15T12:24:37;27.60;93.40
46055;DHT22;31788;6.954;-71.872;2023-04-15T12:27:05;27.70;93.60
46055;DHT22;31788;6.954;-71.872;2023-04-15T12:29:33;27.70;93.70
46055;DHT22;31788;6.954;-71.872;2023-04-15T12:32:10;27.70;93.50
46055;DHT22;31788;6.954;-71.872;2023-04-15T12:34:48;27.70;93.20
46055;DHT22;31788;6.954;-71.872;2023-04-15T12:37:16;27.70;93.10
46055;DHT22;31788;6.954;-71.872;2023-04-15T12:39:47;27.70;93.60
46055;DHT22;31788;6.954;-71.872;2023-04-15T12:42:15;27.80;93.40
46055;DHT22;31788;6.954;-71.872;2023-04-15T12:44:42;27.80;93.40
46055;DHT22;31788;6.954;-71.872;2023-04-15T12:47:10;27.80;93.30
46055;DHT22;31788;6.954;-71.872;2023-04-15T12:49:37;27.80;93.40
46055;DHT22;31788;6.954;-71.872;2023-04-15T12:52:04;27.80;93.20
46055;DHT22;31788;6.954;-71.872;2023-04-15T12:54:32;27.80;93.50
46055;DHT22;31788;6.954;-71.872;2023-04-15T12:56:59;27.90;93.40
46055;DHT22;31788;6.954;-71.872;2023-04-15T12:59:27;27.80;93.20
46055;DHT22;31788;6.954;-71.872;2023-04-15T13:01:54;27.90;93.30
46055;DHT22;31788;6.954;-71.872;2023-04-15T13:04:21;27.90;93.40
46055;DHT22;31788;6.954;-71.872;2023-04-15T13:06:48;27.90;93.30
46055;DHT22;31788;6.954;-71.872;2023-04-15T13:09:14;27.90;93.40
46055;DHT22;31788;6.954;-71.872;2023-04-15T13:11:41;27.90;93.30
46055;DHT22;31788;6.954;-71.872;2023-04-15T13:14:09;27.90;93.60
46055;DHT22;31788;6.954;-71.872;2023-04-15T13:16:39;27.90;93.90
46055;DHT22;31788;6.954;-71.872;2023-04-15T13:19:06;27.90;93.70
46055;DHT22;31788;6.954;-71.872;2023-04-15T13:21:32;27.90;93.60
46055;DHT22;31788;6.954;-71.872;2023-04-15T13:24:00;27.90;94.00
46055;DHT22;31788;6.954;-71.872;2023-04-15T13:26:27;27.90;93.80
46055;DHT22;31788;6.954;-71.872;2023-04-15T13:28:54;27.90;93.70
46055;DHT22;31788;6.954;-71.872;2023-04-15T13:31:21;27.90;93.80
46055;DHT22;31788;6.954;-71.872;2023-04-15T13:33:47;27.90;94.70
46055;DHT22;31788;6.954;-71.872;2023-04-15T13:36:16;27.90;94.80
46055;DHT22;31788;6.954;-71.872;2023-04-15T13:38:43;27.90;94.70
46055;DHT22;31788;6.954;-71.872;2023-04-15T13:41:10;27.90;94.80
46055;DHT22;31788;6.954;-71.872;2023-04-15T13:43:36;27.90;94.80
46055;DHT22;31788;6.954;-71.872;2023-04-15T13:46:03;27.90;94.70
46055;DHT22;31788;6.954;-71.872;2023-04-15T13:48:30;27.90;95.00
46055;DHT22;31788;6.954;-71.872;2023-04-15T13:50:56;27.90;95.20
46055;DHT22;31788;6.954;-71.872;2023-04-15T13:53:23;27.90;95.00
46055;DHT22;31788;6.954;-71.872;2023-04-15T13:55:49;27.90;94.80
46055;DHT22;31788;6.954;-71.872;2023-04-15T13:58:16;27.90;95.30
46055;DHT22;31788;6.954;-71.872;2023-04-15T14:00:43;27.90;95.60
46055;DHT22;31788;6.954;-71.872;2023-04-15T14:03:09;27.80;95.60
46055;DHT22;31788;6.954;-71.872;2023-04-15T14:05:37;27.90;95.80
46055;DHT22;31788;6.954;-71.872;2023-04-15T14:08:04;27.90;96.10
46055;DHT22;31788;6.954;-71.872;2023-04-15T14:10:30;27.80;96.10
46055;DHT22;31788;6.954;-71.872;2023-04-15T14:12:57;27.90;96.20
46055;DHT22;31788;6.954;-71.872;2023-04-15T14:15:24;27.90;96.20
46055;DHT22;31788;6.954;-71.872;2023-04-15T14:17:50;27.90;96.10
46055;DHT22;31788;6.954;-71.872;2023-04-15T14:20:17;27.90;96.10
46055;DHT22;31788;6.954;-71.872;2023-04-15T14:22:43;27.90;96.00
46055;DHT22;31788;6.954;-71.872;2023-04-15T14:25:10;27.90;96.20
46055;DHT22;31788;6.954;-71.872;2023-04-15T14:27:37;27.90;96.20
46055;DHT22;31788;6.954;-71.872;2023-04-15T14:30:03;27.90;96.40
46055;DHT22;31788;6.954;-71.872;2023-04-15T14:32:30;27.90;96.40
46055;DHT22;31788;6.954;-71.872;2023-04-15T14:34:58;27.90;96.30
46055;DHT22;31788;6.954;-71.872;2023-04-15T14:37:24;28.00;96.40
46055;DHT22;31788;6.954;-71.872;2023-04-15T14:39:51;28.00;96.40
46055;DHT22;31788;6.954;-71.872;2023-04-15T14:42:18;28.00;96.40
46055;DHT22;31788;6.954;-71.872;2023-04-15T14:44:44;28.00;95.80
46055;DHT22;31788;6.954;-71.872;2023-04-15T14:47:11;28.00;95.90
46055;DHT22;31788;6.954;-71.872;2023-04-15T14:49:38;28.00;95.60
46055;DHT22;31788;6.954;-71.872;2023-04-15T14:52:04;28.00;95.70
46055;DHT22;31788;6.954;-71.872;2023-04-15T14:54:31;28.00;95.60
46055;DHT22;31788;6.954;-71.872;2023-04-15T14:56:57;28.10;95.60
46055;DHT22;31788;6.954;-71.872;2023-04-15T14:59:24;28.10;95.50
46055;DHT22;31788;6.954;-71.872;2023-04-15T15:01:52;28.10;95.50
46055;DHT22;31788;6.954;-71.872;2023-04-15T15:04:18;28.10;95.50
46055;DHT22;31788;6.954;-71.872;2023-04-15T15:06:45;28.10;95.40
46055;DHT22;31788;6.954;-71.872;2023-04-15T15:09:12;28.10;95.40
46055;DHT22;31788;6.954;-71.872;2023-04-15T15:11:41;28.10;95.50
46055;DHT22;31788;6.954;-71.872;2023-04-15T15:14:08;28.10;95.40
46055;DHT22;31788;6.954;-71.872;2023-04-15T15:16:34;28.10;95.30
46055;DHT22;31788;6.954;-71.872;2023-04-15T15:19:03;28.10;95.30
46055;DHT22;31788;6.954;-71.872;2023-04-15T15:21:29;28.10;94.60
46055;DHT22;31788;6.954;-71.872;2023-04-15T15:23:56;28.10;94.70
46055;DHT22;31788;6.954;-71.872;2023-04-15T15:26:22;28.10;94.60
46055;DHT22;31788;6.954;-71.872;2023-04-15T15:28:49;28.10;94.30
46055;DHT22;31788;6.954;-71.872;2023-04-15T15:31:16;28.10;94.30
46055;DHT22;31788;6.954;-71.872;2023-04-15T15:33:42;28.10;94.40